sensor_id;sensor_type;location;lat;lon;timestamp;P1;durP1;ratioP1;P2;durP2;ratioP2
15841;SDS011;8021;48.022;11.812;2022-10-16T00:00:41;0.30;;;0.30;;
15841;SDS011;8021;48.022;11.812;2022-10-16T00:03:09;0.30;;;0.30;;
15841;SDS011;8021;48.022;11.812;2022-10-16T00:05:40;0.30;;;0.30;;
15841;SDS011;8021;48.022;11.812;2022-10-16T00:08:10;0.30;;;0.25;;
15841;SDS011;8021;48.022;11.812;2022-10-16T00:10:37;0.30;;;0.30;;
15841;SDS011;8021;48.022;11.812;2022-10-16T00:13:05;0.30;;;0.30;;
15841;SDS011;8021;48.022;11.812;2022-10-16T00:15:33;0.30;;;0.30;;
15841;SDS011;8021;48.022;11.812;2022-10-16T00:18:02;0.30;;;0.30;;
15841;SDS011;8021;48.022;11.812;2022-10-16T00:20:30;0.30;;;0.20;;
15841;SDS011;8021;48.022;11.812;2022-10-16T00:22:59;0.30;;;0.30;;
15841;SDS011;8021;48.022;11.812;2022-10-16T00:25:28;0.40;;;0.40;;
15841;SDS011;8021;48.022;11.812;2022-10-16T00:27:58;0.30;;;0.30;;
15841;SDS011;8021;48.022;11.812;2022-10-16T00:30:26;0.30;;;0.30;;
15841;SDS011;8021;48.022;11.812;2022-10-16T00:32:55;0.30;;;0.30;;
15841;SDS011;8021;48.022;11.812;2022-10-16T00:35:22;0.30;;;0.30;;
15841;SDS011;8021;48.022;11.812;2022-10-16T00:37:50;0.30;;;0.28;;
15841;SDS011;8021;48.022;11.812;2022-10-16T00:40:17;0.30;;;0.30;;
15841;SDS011;8021;48.022;11.812;2022-10-16T00:42:46;0.30;;;0.30;;
15841;SDS011;8021;48.022;11.812;2022-10-16T00:45:14;0.30;;;0.30;;
15841;SDS011;8021;48.022;11.812;2022-10-16T00:47:42;0.32;;;0.32;;
15841;SDS011;8021;48.022;11.812;2022-10-16T00:50:13;0.30;;;0.30;;
15841;SDS011;8021;48.022;11.812;2022-10-16T00:52:43;0.30;;;0.30;;
15841;SDS011;8021;48.022;11.812;2022-10-16T00:55:11;0.30;;;0.30;;
15841;SDS011;8021;48.022;11.812;2022-10-16T00:57:39;0.30;;;0.20;;
15841;SDS011;8021;48.022;11.812;2022-10-16T01:00:10;0.40;;;0.40;;
15841;SDS011;8021;48.022;11.812;2022-10-16T01:02:38;0.30;;;0.30;;
15841;SDS011;8021;48.022;11.812;2022-10-16T01:05:05;0.30;;;0.30;;
15841;SDS011;8021;48.022;11.812;2022-10-16T01:07:36;0.40;;;0.40;;
15841;SDS011;8021;48.022;11.812;2022-10-16T01:10:07;0.30;;;0.30;;
15841;SDS011;8021;48.022;11.812;2022-10-16T01:12:39;0.30;;;0.30;;
15841;SDS011;8021;48.022;11.812;2022-10-16T01:15:17;0.30;;;0.30;;
15841;SDS011;8021;48.022;11.812;2022-10-16T01:17:47;0.30;;;0.30;;
15841;SDS011;8021;48.022;11.812;2022-10-16T01:20:18;0.30;;;0.30;;
15841;SDS011;8021;48.022;11.812;2022-10-16T01:22:50;0.30;;;0.30;;
15841;SDS011;8021;48.022;11.812;2022-10-16T01:25:24;0.30;;;0.30;;
15841;SDS011;8021;48.022;11.812;2022-10-16T01:27:54;0.30;;;0.30;;
15841;SDS011;8021;48.022;11.812;2022-10-16T01:30:23;0.30;;;0.30;;
15841;SDS011;8021;48.022;11.812;2022-10-16T01:32:53;0.30;;;0.30;;
15841;SDS011;8021;48.022;11.812;2022-10-16T01:35:23;0.30;;;0.30;;
15841;SDS011;8021;48.022;11.812;2022-10-16T01:37:53;0.30;;;0.30;;
15841;SDS011;8021;48.022;11.812;2022-10-16T01:40:24;0.30;;;0.30;;
15841;SDS011;8021;48.022;11.812;2022-10-16T01:42:54;0.30;;;0.30;;
15841;SDS011;8021;48.022;11.812;2022-10-16T01:45:24;0.30;;;0.30;;
15841;SDS011;8021;48.022;11.812;2022-10-16T01:47:51;0.30;;;0.30;;
15841;SDS011;8021;48.022;11.812;2022-10-16T01:50:20;0.30;;;0.30;;
15841;SDS011;8021;48.022;11.812;2022-10-16T01:52:49;0.30;;;0.30;;
15841;SDS011;8021;48.022;11.812;2022-10-16T01:55:20;0.30;;;0.30;;
15841;SDS011;8021;48.022;11.812;2022-10-16T01:57:49;0.40;;;0.40;;
15841;SDS011;8021;48.022;11.812;2022-10-16T02:00:20;0.35;;;0.35;;
15841;SDS011;8021;48.022;11.812;2022-10-16T02:02:49;0.32;;;0.32;;
15841;SDS011;8021;48.022;11.812;2022-10-16T02:05:19;0.30;;;0.30;;
15841;SDS011;8021;48.022;11.812;2022-10-16T02:07:48;0.40;;;0.40;;
15841;SDS011;8021;48.022;11.812;2022-10-16T02:10:15;0.30;;;0.30;;
15841;SDS011;8021;48.022;11.812;2022-10-16T02:12:47;0.30;;;0.30;;
15841;SDS011;8021;48.022;11.812;2022-10-16T02:15:15;0.30;;;0.30;;
15841;SDS011;8021;48.022;11.812;2022-10-16T02:17:44;0.38;;;0.38;;
15841;SDS011;8021;48.022;11.812;2022-10-16T02:20:11;0.30;;;0.30;;
15841;SDS011;8021;48.022;11.812;2022-10-16T02:22:39;0.30;;;0.30;;
15841;SDS011;8021;48.022;11.812;2022-10-16T02:25:08;0.20;;;0.20;;
15841;SDS011;8021;48.022;11.812;2022-10-16T02:27:38;0.30;;;0.30;;
15841;SDS011;8021;48.022;11.812;2022-10-16T02:30:08;0.30;;;0.30;;
15841;SDS011;8021;48.022;11.812;2022-10-16T02:32:38;0.30;;;0.30;;
15841;SDS011;8021;48.022;11.812;2022-10-16T02:35:08;0.30;;;0.30;;
15841;SDS011;8021;48.022;11.812;2022-10-16T02:37:36;0.30;;;0.22;;
15841;SDS011;8021;48.022;11.812;2022-10-16T02:40:06;0.30;;;0.30;;
15841;SDS011;8021;48.022;11.812;2022-10-16T02:42:34;0.30;;;0.30;;
15841;SDS011;8021;48.022;11.812;2022-10-16T02:45:02;0.40;;;0.40;;
15841;SDS011;8021;48.022;11.812;2022-10-16T02:47:30;0.30;;;0.30;;
15841;SDS011;8021;48.022;11.812;2022-10-16T02:49:58;0.30;;;0.30;;
15841;SDS011;8021;48.022;11.812;2022-10-16T02:52:27;0.40;;;0.40;;
15841;SDS011;8021;48.022;11.812;2022-10-16T02:54:55;0.30;;;0.30;;
15841;SDS011;8021;48.022;11.812;2022-10-16T02:57:22;0.30;;;0.30;;
15841;SDS011;8021;48.022;11.812;2022-10-16T02:59:50;0.30;;;0.30;;
15841;SDS011;8021;48.022;11.812;2022-10-16T03:02:18;0.30;;;0.30;;
15841;SDS011;8021;48.022;11.812;2022-10-16T03:04:45;0.30;;;0.30;;
15841;SDS011;8021;48.022;11.812;2022-10-16T03:07:13;0.30;;;0.30;;
15841;SDS011;8021;48.022;11.812;2022-10-16T03:09:42;0.30;;;0.30;;
15841;SDS011;8021;48.022;11.812;2022-10-16T03:12:09;0.30;;;0.30;;
15841;SDS011;8021;48.022;11.812;2022-10-16T03:14:38;0.30;;;0.30;;
15841;SDS011;8021;48.022;11.812;2022-10-16T03:17:06;0.30;;;0.30;;
15841;SDS011;8021;48.022;11.812;2022-10-16T03:19:33;0.40;;;0.40;;
15841;SDS011;8021;48.022;11.812;2022-10-16T03:22:02;0.40;;;0.40;;
15841;SDS011;8021;48.022;11.812;2022-10-16T03:24:29;0.40;;;0.40;;
15841;SDS011;8021;48.022;11.812;2022-10-16T03:26:58;0.35;;;0.35;;
15841;SDS011;8021;48.022;11.812;2022-10-16T03:29:25;0.30;;;0.30;;
15841;SDS011;8021;48.022;11.812;2022-10-16T03:31:53;0.30;;;0.30;;
15841;SDS011;8021;48.022;11.812;2022-10-16T03:34:21;0.32;;;0.32;;
15841;SDS011;8021;48.022;11.812;2022-10-16T03:36:49;0.30;;;0.30;;
15841;SDS011;8021;48.022;11.812;2022-10-16T03:39:16;0.40;;;0.40;;
15841;SDS011;8021;48.022;11.812;2022-10-16T03:41:44;0.35;;;0.35;;
15841;SDS011;8021;48.022;11.812;2022-10-16T03:44:13;0.40;;;0.40;;
15841;SDS011;8021;48.022;11.812;2022-10-16T03:46:41;0.30;;;0.30;;
15841;SDS011;8021;48.022;11.812;2022-10-16T03:49:08;0.30;;;0.30;;
15841;SDS011;8021;48.022;11.812;2022-10-16T03:51:36;0.30;;;0.30;;
15841;SDS011;8021;48.022;11.812;2022-10-16T03:54:03;0.30;;;0.30;;
15841;SDS011;8021;48.022;11.812;2022-10-16T03:56:31;0.40;;;0.40;;
15841;SDS011;8021;48.022;11.812;2022-10-16T03:58:59;0.30;;;0.30;;
15841;SDS011;8021;48.022;11.812;2022-10-16T04:01:27;0.30;;;0.30;;
15841;SDS011;8021;48.022;11.812;2022-10-16T04:03:55;0.30;;;0.30;;
15841;SDS011;8021;48.022;11.812;2022-10-16T04:06:22;0.30;;;0.30;;
15841;SDS011;8021;48.022;11.812;2022-10-16T04:08:50;0.40;;;0.40;;
15841;SDS011;8021;48.022;11.812;2022-10-16T04:11:17;0.40;;;0.40;;
15841;SDS011;8021;48.022;11.812;2022-10-16T04:13:45;0.40;;;0.40;;
15841;SDS011;8021;48.022;11.812;2022-10-16T04:16:12;0.40;;;0.40;;
15841;SDS011;8021;48.022;11.812;2022-10-16T04:18:41;0.30;;;0.30;;
15841;SDS011;8021;48.022;11.812;2022-10-16T04:21:09;0.30;;;0.30;;
15841;SDS011;8021;48.022;11.812;2022-10-16T04:23:36;0.30;;;0.30;;
15841;SDS011;8021;48.022;11.812;2022-10-16T04:26:04;0.30;;;0.30;;
15841;SDS011;8021;48.022;11.812;2022-10-16T04:28:31;0.30;;;0.30;;
15841;SDS011;8021;48.022;11.812;2022-10-16T04:30:59;0.30;;;0.30;;
15841;SDS011;8021;48.022;11.812;2022-10-16T04:33:26;0.30;;;0.30;;
15841;SDS011;8021;48.022;11.812;2022-10-16T04:35:58;0.30;;;0.30;;
15841;SDS011;8021;48.022;11.812;2022-10-16T04:38:26;0.30;;;0.25;;
15841;SDS011;8021;48.022;11.812;2022-10-16T04:40:53;0.30;;;0.20;;
15841;SDS011;8021;48.022;11.812;2022-10-16T04:43:21;0.32;;;0.32;;
15841;SDS011;8021;48.022;11.812;2022-10-16T04:45:49;0.30;;;0.22;;
15841;SDS011;8021;48.022;11.812;2022-10-16T04:48:18;0.30;;;0.30;;
15841;SDS011;8021;48.022;11.812;2022-10-16T04:50:45;0.30;;;0.30;;
15841;SDS011;8021;48.022;11.812;2022-10-16T04:53:21;0.30;;;0.30;;
15841;SDS011;8021;48.022;11.812;2022-10-16T04:55:49;0.30;;;0.30;;
15841;SDS011;8021;48.022;11.812;2022-10-16T04:58:17;0.30;;;0.30;;
15841;SDS011;8021;48.022;11.812;2022-10-16T05:00:44;0.30;;;0.30;;
15841;SDS011;8021;48.022;11.812;2022-10-16T05:03:12;0.30;;;0.28;;
15841;SDS011;8021;48.022;11.812;2022-10-16T05:05:42;0.30;;;0.30;;
15841;SDS011;8021;48.022;11.812;2022-10-16T05:08:09;0.40;;;0.40;;
15841;SDS011;8021;48.022;11.812;2022-10-16T05:10:38;0.30;;;0.30;;
15841;SDS011;8021;48.022;11.812;2022-10-16T05:13:06;0.30;;;0.30;;
15841;SDS011;8021;48.022;11.812;2022-10-16T05:15:33;0.30;;;0.30;;
15841;SDS011;8021;48.022;11.812;2022-10-16T05:18:01;0.30;;;0.30;;
15841;SDS011;8021;48.022;11.812;2022-10-16T05:20:28;0.30;;;0.30;;
15841;SDS011;8021;48.022;11.812;2022-10-16T05:22:56;0.30;;;0.30;;
15841;SDS011;8021;48.022;11.812;2022-10-16T05:25:24;0.30;;;0.30;;
15841;SDS011;8021;48.022;11.812;2022-10-16T05:27:52;0.40;;;0.40;;
15841;SDS011;8021;48.022;11.812;2022-10-16T05:30:20;0.30;;;0.30;;
15841;SDS011;8021;48.022;11.812;2022-10-16T05:32:48;0.30;;;0.30;;
15841;SDS011;8021;48.022;11.812;2022-10-16T05:35:16;0.30;;;0.30;;
15841;SDS011;8021;48.022;11.812;2022-10-16T05:37:43;0.30;;;0.30;;
15841;SDS011;8021;48.022;11.812;2022-10-16T05:40:11;0.30;;;0.30;;
15841;SDS011;8021;48.022;11.812;2022-10-16T05:42:39;0.30;;;0.30;;
15841;SDS011;8021;48.022;11.812;2022-10-16T05:45:09;0.30;;;0.30;;
15841;SDS011;8021;48.022;11.812;2022-10-16T05:47:37;0.35;;;0.35;;
15841;SDS011;8021;48.022;11.812;2022-10-16T05:50:04;0.30;;;0.30;;
15841;SDS011;8021;48.022;11.812;2022-10-16T05:52:32;0.30;;;0.30;;
15841;SDS011;8021;48.022;11.812;2022-10-16T05:54:59;0.30;;;0.20;;
15841;SDS011;8021;48.022;11.812;2022-10-16T05:57:27;0.20;;;0.20;;
15841;SDS011;8021;48.022;11.812;2022-10-16T05:59:55;0.30;;;0.20;;
15841;SDS011;8021;48.022;11.812;2022-10-16T06:02:24;0.20;;;0.20;;
15841;SDS011;8021;48.022;11.812;2022-10-16T06:04:51;0.20;;;0.20;;
15841;SDS011;8021;48.022;11.812;2022-10-16T06:07:19;0.30;;;0.20;;
15841;SDS011;8021;48.022;11.812;2022-10-16T06:09:47;0.20;;;0.20;;
15841;SDS011;8021;48.022;11.812;2022-10-16T06:12:15;0.20;;;0.20;;
15841;SDS011;8021;48.022;11.812;2022-10-16T06:14:43;0.20;;;0.20;;
15841;SDS011;8021;48.022;11.812;2022-10-16T06:17:11;0.30;;;0.20;;
15841;SDS011;8021;48.022;11.812;2022-10-16T06:19:40;0.20;;;0.20;;
15841;SDS011;8021;48.022;11.812;2022-10-16T06:22:07;0.20;;;0.20;;
15841;SDS011;8021;48.022;11.812;2022-10-16T06:24:35;0.20;;;0.20;;
15841;SDS011;8021;48.022;11.812;2022-10-16T06:27:02;0.30;;;0.20;;
15841;SDS011;8021;48.022;11.812;2022-10-16T06:29:30;0.30;;;0.30;;
15841;SDS011;8021;48.022;11.812;2022-10-16T06:31:57;0.28;;;0.28;;
15841;SDS011;8021;48.022;11.812;2022-10-16T06:34:25;0.20;;;0.20;;
15841;SDS011;8021;48.022;11.812;2022-10-16T06:36:54;0.20;;;0.20;;
15841;SDS011;8021;48.022;11.812;2022-10-16T06:39:21;0.20;;;0.20;;
15841;SDS011;8021;48.022;11.812;2022-10-16T06:41:49;0.30;;;0.20;;
15841;SDS011;8021;48.022;11.812;2022-10-16T06:44:16;0.20;;;0.20;;
15841;SDS011;8021;48.022;11.812;2022-10-16T06:46:44;0.20;;;0.20;;
15841;SDS011;8021;48.022;11.812;2022-10-16T06:49:11;0.20;;;0.20;;
15841;SDS011;8021;48.022;11.812;2022-10-16T06:51:39;0.20;;;0.15;;
15841;SDS011;8021;48.022;11.812;2022-10-16T06:54:10;0.30;;;0.20;;
15841;SDS011;8021;48.022;11.812;2022-10-16T06:56:37;0.20;;;0.20;;
15841;SDS011;8021;48.022;11.812;2022-10-16T06:59:05;0.20;;;0.13;;
15841;SDS011;8021;48.022;11.812;2022-10-16T07:01:32;0.30;;;0.20;;
15841;SDS011;8021;48.022;11.812;2022-10-16T07:04:02;0.25;;;0.20;;
15841;SDS011;8021;48.022;11.812;2022-10-16T07:06:31;0.20;;;0.20;;
15841;SDS011;8021;48.022;11.812;2022-10-16T07:09:00;0.25;;;0.20;;
15841;SDS011;8021;48.022;11.812;2022-10-16T07:11:29;0.20;;;0.20;;
15841;SDS011;8021;48.022;11.812;2022-10-16T07:13:56;0.28;;;0.20;;
15841;SDS011;8021;48.022;11.812;2022-10-16T07:16:24;0.20;;;0.17;;
15841;SDS011;8021;48.022;11.812;2022-10-16T07:18:53;0.20;;;0.20;;
15841;SDS011;8021;48.022;11.812;2022-10-16T07:21:24;0.20;;;0.20;;
15841;SDS011;8021;48.022;11.812;2022-10-16T07:23:53;0.15;;;0.15;;
15841;SDS011;8021;48.022;11.812;2022-10-16T07:26:21;0.10;;;0.10;;
15841;SDS011;8021;48.022;11.812;2022-10-16T07:28:50;0.10;;;0.10;;
15841;SDS011;8021;48.022;11.812;2022-10-16T07:31:18;0.00;;;0.00;;
15841;SDS011;8021;48.022;11.812;2022-10-16T07:33:46;0.00;;;0.00;;
15841;SDS011;8021;48.022;11.812;2022-10-16T07:36:14;0.00;;;0.00;;
15841;SDS011;8021;48.022;11.812;2022-10-16T07:38:42;0.00;;;0.00;;
15841;SDS011;8021;48.022;11.812;2022-10-16T07:41:10;0.00;;;0.00;;
15841;SDS011;8021;48.022;11.812;2022-10-16T07:43:38;0.00;;;0.00;;
15841;SDS011;8021;48.022;11.812;2022-10-16T07:46:07;0.00;;;0.00;;
15841;SDS011;8021;48.022;11.812;2022-10-16T07:48:34;0.00;;;0.00;;
15841;SDS011;8021;48.022;11.812;2022-10-16T07:51:02;0.00;;;0.00;;
15841;SDS011;8021;48.022;11.812;2022-10-16T07:53:30;0.00;;;0.00;;
15841;SDS011;8021;48.022;11.812;2022-10-16T07:55:58;0.00;;;0.00;;
15841;SDS011;8021;48.022;11.812;2022-10-16T07:58:26;0.00;;;0.00;;
15841;SDS011;8021;48.022;11.812;2022-10-16T08:00:54;0.00;;;0.00;;
15841;SDS011;8021;48.022;11.812;2022-10-16T08:03:23;0.00;;;0.00;;
15841;SDS011;8021;48.022;11.812;2022-10-16T08:05:50;0.00;;;0.00;;
15841;SDS011;8021;48.022;11.812;2022-10-16T08:08:18;0.00;;;0.00;;
15841;SDS011;8021;48.022;11.812;2022-10-16T08:10:46;0.00;;;0.00;;
15841;SDS011;8021;48.022;11.812;2022-10-16T08:13:13;0.00;;;0.00;;
15841;SDS011;8021;48.022;11.812;2022-10-16T08:15:42;0.00;;;0.00;;
15841;SDS011;8021;48.022;11.812;2022-10-16T08:18:10;0.00;;;0.00;;
15841;SDS011;8021;48.022;11.812;2022-10-16T08:20:39;0.00;;;0.00;;
15841;SDS011;8021;48.022;11.812;2022-10-16T08:23:07;0.00;;;0.00;;
15841;SDS011;8021;48.022;11.812;2022-10-16T08:25:36;0.00;;;0.00;;
15841;SDS011;8021;48.022;11.812;2022-10-16T08:28:04;0.00;;;0.00;;
15841;SDS011;8021;48.022;11.812;2022-10-16T08:30:32;0.00;;;0.00;;
15841;SDS011;8021;48.022;11.812;2022-10-16T08:33:01;0.00;;;0.00;;
15841;SDS011;8021;48.022;11.812;2022-10-16T08:35:28;0.00;;;0.00;;
15841;SDS011;8021;48.022;11.812;2022-10-16T08:37:57;0.00;;;0.00;;
15841;SDS011;8021;48.022;11.812;2022-10-16T08:40:25;0.00;;;0.00;;
15841;SDS011;8021;48.022;11.812;2022-10-16T08:43:00;0.00;;;0.00;;
15841;SDS011;8021;48.022;11.812;2022-10-16T08:45:40;0.00;;;0.00;;
15841;SDS011;8021;48.022;11.812;2022-10-16T08:48:15;0.00;;;0.00;;
15841;SDS011;8021;48.022;11.812;2022-10-16T08:50:44;0.00;;;0.00;;
15841;SDS011;8021;48.022;11.812;2022-10-16T08:53:16;0.00;;;0.00;;
15841;SDS011;8021;48.022;11.812;2022-10-16T08:55:45;0.00;;;0.00;;
15841;SDS011;8021;48.022;11.812;2022-10-16T08:58:14;0.00;;;0.00;;
15841;SDS011;8021;48.022;11.812;2022-10-16T09:00:43;0.00;;;0.00;;
15841;SDS011;8021;48.022;11.812;2022-10-16T09:03:14;0.00;;;0.00;;
15841;SDS011;8021;48.022;11.812;2022-10-16T09:05:47;0.00;;;0.00;;
15841;SDS011;8021;48.022;11.812;2022-10-16T09:08:19;0.10;;;0.10;;
15841;SDS011;8021;48.022;11.812;2022-10-16T09:10:50;0.10;;;0.10;;
15841;SDS011;8021;48.022;11.812;2022-10-16T09:13:21;0.10;;;0.10;;
15841;SDS011;8021;48.022;11.812;2022-10-16T09:15:52;0.10;;;0.10;;
15841;SDS011;8021;48.022;11.812;2022-10-16T09:18:23;0.10;;;0.10;;
15841;SDS011;8021;48.022;11.812;2022-10-16T09:20:59;0.10;;;0.10;;
15841;SDS011;8021;48.022;11.812;2022-10-16T09:23:32;0.10;;;0.10;;
15841;SDS011;8021;48.022;11.812;2022-10-16T09:26:01;0.10;;;0.10;;
15841;SDS011;8021;48.022;11.812;2022-10-16T09:28:29;0.10;;;0.10;;
15841;SDS011;8021;48.022;11.812;2022-10-16T09:30:57;0.15;;;0.15;;
15841;SDS011;8021;48.022;11.812;2022-10-16T09:34:16;0.20;;;0.20;;
15841;SDS011;8021;48.022;11.812;2022-10-16T09:36:45;0.20;;;0.20;;
15841;SDS011;8021;48.022;11.812;2022-10-16T09:39:14;0.20;;;0.10;;
15841;SDS011;8021;48.022;11.812;2022-10-16T09:41:42;0.20;;;0.20;;
15841;SDS011;8021;48.022;11.812;2022-10-16T09:44:16;0.10;;;0.10;;
15841;SDS011;8021;48.022;11.812;2022-10-16T09:46:45;0.10;;;0.10;;
15841;SDS011;8021;48.022;11.812;2022-10-16T09:49:22;0.20;;;0.20;;
15841;SDS011;8021;48.022;11.812;2022-10-16T09:51:50;0.20;;;0.20;;
15841;SDS011;8021;48.022;11.812;2022-10-16T09:54:21;0.10;;;0.10;;
15841;SDS011;8021;48.022;11.812;2022-10-16T09:56:48;0.10;;;0.10;;
15841;SDS011;8021;48.022;11.812;2022-10-16T09:59:18;0.20;;;0.20;;
15841;SDS011;8021;48.022;11.812;2022-10-16T10:01:47;0.20;;;0.20;;
15841;SDS011;8021;48.022;11.812;2022-10-16T10:04:16;0.20;;;0.20;;
15841;SDS011;8021;48.022;11.812;2022-10-16T10:06:44;0.10;;;0.10;;
15841;SDS011;8021;48.022;11.812;2022-10-16T10:09:19;0.13;;;0.10;;
15841;SDS011;8021;48.022;11.812;2022-10-16T10:11:53;0.13;;;0.10;;
15841;SDS011;8021;48.022;11.812;2022-10-16T10:14:23;0.10;;;0.10;;
15841;SDS011;8021;48.022;11.812;2022-10-16T10:16:51;0.10;;;0.10;;
15841;SDS011;8021;48.022;11.812;2022-10-16T10:19:20;0.20;;;0.20;;
15841;SDS011;8021;48.022;11.812;2022-10-16T10:21:48;0.10;;;0.10;;
15841;SDS011;8021;48.022;11.812;2022-10-16T10:24:17;0.20;;;0.20;;
15841;SDS011;8021;48.022;11.812;2022-10-16T10:26:47;0.20;;;0.20;;
15841;SDS011;8021;48.022;11.812;2022-10-16T10:29:18;0.10;;;0.10;;
15841;SDS011;8021;48.022;11.812;2022-10-16T10:31:52;0.10;;;0.10;;
15841;SDS011;8021;48.022;11.812;2022-10-16T10:34:27;0.10;;;0.10;;
15841;SDS011;8021;48.022;11.812;2022-10-16T10:37:02;0.10;;;0.10;;
15841;SDS011;8021;48.022;11.812;2022-10-16T10:39:32;0.10;;;0.10;;
15841;SDS011;8021;48.022;11.812;2022-10-16T10:42:17;0.10;;;0.10;;
15841;SDS011;8021;48.022;11.812;2022-10-16T10:44:52;0.10;;;0.10;;
15841;SDS011;8021;48.022;11.812;2022-10-16T10:47:24;0.10;;;0.10;;
15841;SDS011;8021;48.022;11.812;2022-10-16T10:49:56;0.10;;;0.10;;
15841;SDS011;8021;48.022;11.812;2022-10-16T10:52:30;0.10;;;0.10;;
15841;SDS011;8021;48.022;11.812;2022-10-16T10:55:03;0.10;;;0.10;;
15841;SDS011;8021;48.022;11.812;2022-10-16T10:57:35;0.20;;;0.20;;
15841;SDS011;8021;48.022;11.812;2022-10-16T11:00:12;0.10;;;0.10;;
15841;SDS011;8021;48.022;11.812;2022-10-16T11:02:45;0.20;;;0.20;;
15841;SDS011;8021;48.022;11.812;2022-10-16T11:05:23;0.10;;;0.10;;
15841;SDS011;8021;48.022;11.812;2022-10-16T11:07:56;0.10;;;0.10;;
15841;SDS011;8021;48.022;11.812;2022-10-16T11:10:26;0.10;;;0.10;;
15841;SDS011;8021;48.022;11.812;2022-10-16T11:12:55;0.10;;;0.10;;
15841;SDS011;8021;48.022;11.812;2022-10-16T11:15:25;0.10;;;0.10;;
15841;SDS011;8021;48.022;11.812;2022-10-16T11:17:55;0.10;;;0.10;;
15841;SDS011;8021;48.022;11.812;2022-10-16T11:20:25;0.10;;;0.10;;
15841;SDS011;8021;48.022;11.812;2022-10-16T11:22:54;0.10;;;0.10;;
15841;SDS011;8021;48.022;11.812;2022-10-16T11:25:24;0.10;;;0.10;;
15841;SDS011;8021;48.022;11.812;2022-10-16T11:27:54;0.10;;;0.10;;
15841;SDS011;8021;48.022;11.812;2022-10-16T11:30:26;0.10;;;0.10;;
15841;SDS011;8021;48.022;11.812;2022-10-16T11:33:00;0.10;;;0.10;;
15841;SDS011;8021;48.022;11.812;2022-10-16T11:35:32;0.10;;;0.10;;
15841;SDS011;8021;48.022;11.812;2022-10-16T11:38:02;0.10;;;0.10;;
15841;SDS011;8021;48.022;11.812;2022-10-16T11:40:32;0.10;;;0.10;;
15841;SDS011;8021;48.022;11.812;2022-10-16T11:43:02;0.10;;;0.10;;
15841;SDS011;8021;48.022;11.812;2022-10-16T11:45:34;0.10;;;0.10;;
15841;SDS011;8021;48.022;11.812;2022-10-16T11:48:05;0.10;;;0.10;;
15841;SDS011;8021;48.022;11.812;2022-10-16T11:50:37;0.10;;;0.10;;
15841;SDS011;8021;48.022;11.812;2022-10-16T11:53:11;0.10;;;0.10;;
15841;SDS011;8021;48.022;11.812;2022-10-16T11:55:41;0.10;;;0.10;;
15841;SDS011;8021;48.022;11.812;2022-10-16T11:58:15;0.10;;;0.10;;
15841;SDS011;8021;48.022;11.812;2022-10-16T12:00:45;0.10;;;0.10;;
15841;SDS011;8021;48.022;11.812;2022-10-16T12:03:15;0.10;;;0.10;;
15841;SDS011;8021;48.022;11.812;2022-10-16T12:05:50;0.10;;;0.10;;
15841;SDS011;8021;48.022;11.812;2022-10-16T12:08:19;0.10;;;0.10;;
15841;SDS011;8021;48.022;11.812;2022-10-16T12:10:47;0.10;;;0.10;;
15841;SDS011;8021;48.022;11.812;2022-10-16T12:13:28;0.10;;;0.10;;
15841;SDS011;8021;48.022;11.812;2022-10-16T12:16:05;0.10;;;0.10;;
15841;SDS011;8021;48.022;11.812;2022-10-16T12:18:32;0.10;;;0.10;;
15841;SDS011;8021;48.022;11.812;2022-10-16T12:21:00;0.10;;;0.10;;
15841;SDS011;8021;48.022;11.812;2022-10-16T12:23:31;0.05;;;0.05;;
15841;SDS011;8021;48.022;11.812;2022-10-16T12:26:00;0.10;;;0.10;;
15841;SDS011;8021;48.022;11.812;2022-10-16T12:28:29;0.10;;;0.10;;
15841;SDS011;8021;48.022;11.812;2022-10-16T12:30:57;0.00;;;0.00;;
15841;SDS011;8021;48.022;11.812;2022-10-16T12:33:27;0.00;;;0.00;;
15841;SDS011;8021;48.022;11.812;2022-10-16T12:35:56;0.10;;;0.10;;
15841;SDS011;8021;48.022;11.812;2022-10-16T12:38:25;0.10;;;0.10;;
15841;SDS011;8021;48.022;11.812;2022-10-16T12:40:58;0.10;;;0.10;;
15841;SDS011;8021;48.022;11.812;2022-10-16T12:43:36;0.10;;;0.10;;
15841;SDS011;8021;48.022;11.812;2022-10-16T12:46:05;0.10;;;0.10;;
15841;SDS011;8021;48.022;11.812;2022-10-16T12:48:34;0.10;;;0.10;;
15841;SDS011;8021;48.022;11.812;2022-10-16T12:51:22;0.10;;;0.10;;
15841;SDS011;8021;48.022;11.812;2022-10-16T12:53:57;0.00;;;0.00;;
15841;SDS011;8021;48.022;11.812;2022-10-16T12:56:27;0.10;;;0.10;;
15841;SDS011;8021;48.022;11.812;2022-10-16T12:59:01;0.13;;;0.13;;
15841;SDS011;8021;48.022;11.812;2022-10-16T13:01:36;0.10;;;0.10;;
15841;SDS011;8021;48.022;11.812;2022-10-16T13:04:22;0.10;;;0.10;;
15841;SDS011;8021;48.022;11.812;2022-10-16T13:06:55;0.00;;;0.00;;
15841;SDS011;8021;48.022;11.812;2022-10-16T13:09:27;0.10;;;0.10;;
15841;SDS011;8021;48.022;11.812;2022-10-16T13:12:00;0.10;;;0.10;;
15841;SDS011;8021;48.022;11.812;2022-10-16T13:14:59;0.10;;;0.10;;
15841;SDS011;8021;48.022;11.812;2022-10-16T13:17:30;0.10;;;0.10;;
15841;SDS011;8021;48.022;11.812;2022-10-16T13:20:05;0.10;;;0.10;;
15841;SDS011;8021;48.022;11.812;2022-10-16T13:22:39;0.10;;;0.10;;
15841;SDS011;8021;48.022;11.812;2022-10-16T13:25:15;0.10;;;0.10;;
15841;SDS011;8021;48.022;11.812;2022-10-16T13:27:46;0.10;;;0.10;;
15841;SDS011;8021;48.022;11.812;2022-10-16T13:30:19;0.10;;;0.10;;
15841;SDS011;8021;48.022;11.812;2022-10-16T13:32:55;0.10;;;0.10;;
15841;SDS011;8021;48.022;11.812;2022-10-16T13:35:26;0.10;;;0.10;;
15841;SDS011;8021;48.022;11.812;2022-10-16T13:38:03;0.10;;;0.10;;
15841;SDS011;8021;48.022;11.812;2022-10-16T13:40:31;0.10;;;0.10;;
15841;SDS011;8021;48.022;11.812;2022-10-16T13:43:00;0.10;;;0.10;;
15841;SDS011;8021;48.022;11.812;2022-10-16T13:45:28;0.10;;;0.10;;
15841;SDS011;8021;48.022;11.812;2022-10-16T13:48:02;0.10;;;0.10;;
15841;SDS011;8021;48.022;11.812;2022-10-16T13:50:31;0.10;;;0.10;;
15841;SDS011;8021;48.022;11.812;2022-10-16T13:53:05;0.10;;;0.10;;
15841;SDS011;8021;48.022;11.812;2022-10-16T13:55:33;0.10;;;0.10;;
15841;SDS011;8021;48.022;11.812;2022-10-16T13:58:04;0.10;;;0.10;;
15841;SDS011;8021;48.022;11.812;2022-10-16T14:00:32;0.10;;;0.10;;
15841;SDS011;8021;48.022;11.812;2022-10-16T14:03:00;0.10;;;0.10;;
15841;SDS011;8021;48.022;11.812;2022-10-16T14:05:28;0.10;;;0.10;;
15841;SDS011;8021;48.022;11.812;2022-10-16T14:07:57;0.10;;;0.10;;
15841;SDS011;8021;48.022;11.812;2022-10-16T14:10:26;0.10;;;0.10;;
15841;SDS011;8021;48.022;11.812;2022-10-16T14:12:57;0.03;;;0.03;;
15841;SDS011;8021;48.022;11.812;2022-10-16T14:15:24;0.10;;;0.10;;
15841;SDS011;8021;48.022;11.812;2022-10-16T14:17:52;0.10;;;0.10;;
15841;SDS011;8021;48.022;11.812;2022-10-16T14:20:21;0.10;;;0.10;;
15841;SDS011;8021;48.022;11.812;2022-10-16T14:22:57;0.10;;;0.10;;
15841;SDS011;8021;48.022;11.812;2022-10-16T14:25:28;0.10;;;0.10;;
15841;SDS011;8021;48.022;11.812;2022-10-16T14:27:56;0.10;;;0.10;;
15841;SDS011;8021;48.022;11.812;2022-10-16T14:30:24;0.10;;;0.10;;
15841;SDS011;8021;48.022;11.812;2022-10-16T14:32:53;0.10;;;0.10;;
15841;SDS011;8021;48.022;11.812;2022-10-16T14:35:24;0.10;;;0.10;;
15841;SDS011;8021;48.022;11.812;2022-10-16T14:37:52;0.10;;;0.10;;
15841;SDS011;8021;48.022;11.812;2022-10-16T14:40:20;0.10;;;0.10;;
15841;SDS011;8021;48.022;11.812;2022-10-16T14:42:51;0.10;;;0.10;;
15841;SDS011;8021;48.022;11.812;2022-10-16T14:45:19;0.10;;;0.10;;
15841;SDS011;8021;48.022;11.812;2022-10-16T14:47:48;0.10;;;0.10;;
15841;SDS011;8021;48.022;11.812;2022-10-16T14:50:16;0.10;;;0.10;;
15841;SDS011;8021;48.022;11.812;2022-10-16T14:52:44;0.10;;;0.10;;
15841;SDS011;8021;48.022;11.812;2022-10-16T14:55:11;0.10;;;0.10;;
15841;SDS011;8021;48.022;11.812;2022-10-16T14:57:39;0.10;;;0.10;;
15841;SDS011;8021;48.022;11.812;2022-10-16T15:00:12;0.10;;;0.10;;
15841;SDS011;8021;48.022;11.812;2022-10-16T15:02:41;0.10;;;0.10;;